sensor_id;sensor_type;location;lat;lon;timestamp;P1;durP1;ratioP1;P2;durP2;ratioP2
37241;SDS011;23135;51.078;12.108;2022-12-29T00:00:02;0.13;;;0.03;;
37241;SDS011;23135;51.078;12.108;2022-12-29T00:02:29;2.53;;;0.00;;
37241;SDS011;23135;51.078;12.108;2022-12-29T00:04:55;2.30;;;0.30;;
37241;SDS011;23135;51.078;12.108;2022-12-29T00:07:20;1.45;;;0.00;;
37241;SDS011;23135;51.078;12.108;2022-12-29T00:09:46;0.30;;;0.00;;
37241;SDS011;23135;51.078;12.108;2022-12-29T00:12:11;0.63;;;0.00;;
37241;SDS011;23135;51.078;12.108;2022-12-29T00:14:37;1.75;;;0.20;;
37241;SDS011;23135;51.078;12.108;2022-12-29T00:17:22;0.30;;;0.00;;
37241;SDS011;23135;51.078;12.108;2022-12-29T00:19:48;1.58;;;0.10;;
37241;SDS011;23135;51.078;12.108;2022-12-29T00:22:32;3.83;;;0.00;;
37241;SDS011;23135;51.078;12.108;2022-12-29T00:25:16;1.08;;;0.10;;
37241;SDS011;23135;51.078;12.108;2022-12-29T00:28:00;0.60;;;0.00;;
37241;SDS011;23135;51.078;12.108;2022-12-29T00:30:44;0.20;;;0.00;;
37241;SDS011;23135;51.078;12.108;2022-12-29T00:33:29;1.30;;;0.00;;
37241;SDS011;23135;51.078;12.108;2022-12-29T00:39:28;0.63;;;0.20;;
37241;SDS011;23135;51.078;12.108;2022-12-29T00:41:55;0.38;;;0.10;;
37241;SDS011;23135;51.078;12.108;2022-12-29T00:44:39;2.47;;;0.00;;
37241;SDS011;23135;51.078;12.108;2022-12-29T00:47:05;0.30;;;0.10;;
37241;SDS011;23135;51.078;12.108;2022-12-29T00:49:31;2.17;;;0.00;;
37241;SDS011;23135;51.078;12.108;2022-12-29T00:52:07;0.47;;;0.00;;
37241;SDS011;23135;51.078;12.108;2022-12-29T00:54:38;0.10;;;0.00;;
37241;SDS011;23135;51.078;12.108;2022-12-29T00:57:06;1.17;;;0.20;;
37241;SDS011;23135;51.078;12.108;2022-12-29T00:59:36;0.35;;;0.00;;
37241;SDS011;23135;51.078;12.108;2022-12-29T01:02:03;0.47;;;0.28;;
37241;SDS011;23135;51.078;12.108;2022-12-29T01:04:29;2.38;;;0.20;;
37241;SDS011;23135;51.078;12.108;2022-12-29T01:06:54;4.68;;;0.00;;
37241;SDS011;23135;51.078;12.108;2022-12-29T01:09:20;1.88;;;0.20;;
37241;SDS011;23135;51.078;12.108;2022-12-29T01:12:05;2.03;;;0.00;;
37241;SDS011;23135;51.078;12.108;2022-12-29T01:14:31;1.10;;;0.10;;
37241;SDS011;23135;51.078;12.108;2022-12-29T01:16:57;0.40;;;0.00;;
37241;SDS011;23135;51.078;12.108;2022-12-29T01:19:23;0.50;;;0.00;;
37241;SDS011;23135;51.078;12.108;2022-12-29T01:21:49;1.52;;;0.00;;
37241;SDS011;23135;51.078;12.108;2022-12-29T01:24:16;1.55;;;0.00;;
37241;SDS011;23135;51.078;12.108;2022-12-29T01:26:42;0.95;;;0.13;;
37241;SDS011;23135;51.078;12.108;2022-12-29T01:29:08;0.45;;;0.00;;
37241;SDS011;23135;51.078;12.108;2022-12-29T01:31:34;0.17;;;0.00;;
37241;SDS011;23135;51.078;12.108;2022-12-29T01:34:00;0.20;;;0.00;;
37241;SDS011;23135;51.078;12.108;2022-12-29T01:36:25;0.30;;;0.00;;
37241;SDS011;23135;51.078;12.108;2022-12-29T01:38:51;1.20;;;0.10;;
37241;SDS011;23135;51.078;12.108;2022-12-29T01:41:17;1.45;;;0.10;;
37241;SDS011;23135;51.078;12.108;2022-12-29T01:43:46;1.95;;;0.00;;
37241;SDS011;23135;51.078;12.108;2022-12-29T01:48:41;2.67;;;0.15;;
37241;SDS011;23135;51.078;12.108;2022-12-29T01:51:07;1.55;;;0.00;;
37241;SDS011;23135;51.078;12.108;2022-12-29T01:53:33;2.72;;;0.20;;
37241;SDS011;23135;51.078;12.108;2022-12-29T01:56:02;0.52;;;0.00;;
37241;SDS011;23135;51.078;12.108;2022-12-29T01:58:32;1.27;;;0.47;;
37241;SDS011;23135;51.078;12.108;2022-12-29T02:01:02;5.80;;;0.00;;
37241;SDS011;23135;51.078;12.108;2022-12-29T02:03:29;0.28;;;0.15;;
37241;SDS011;23135;51.078;12.108;2022-12-29T02:08:29;3.78;;;0.20;;
37241;SDS011;23135;51.078;12.108;2022-12-29T02:10:55;0.63;;;0.10;;
37241;SDS011;23135;51.078;12.108;2022-12-29T02:13:26;2.28;;;0.10;;
37241;SDS011;23135;51.078;12.108;2022-12-29T02:16:14;2.28;;;0.00;;
37241;SDS011;23135;51.078;12.108;2022-12-29T02:18:55;0.90;;;0.13;;
37241;SDS011;23135;51.078;12.108;2022-12-29T02:24:31;0.52;;;0.15;;
37241;SDS011;23135;51.078;12.108;2022-12-29T02:38:10;0.25;;;0.00;;
37241;SDS011;23135;51.078;12.108;2022-12-29T02:41:06;0.25;;;0.00;;
37241;SDS011;23135;51.078;12.108;2022-12-29T02:44:04;0.98;;;0.22;;
37241;SDS011;23135;51.078;12.108;2022-12-29T02:46:51;1.35;;;0.00;;
37241;SDS011;23135;51.078;12.108;2022-12-29T02:49:30;1.23;;;0.15;;
37241;SDS011;23135;51.078;12.108;2022-12-29T02:52:01;2.20;;;0.20;;
37241;SDS011;23135;51.078;12.108;2022-12-29T02:54:27;2.55;;;0.32;;
37241;SDS011;23135;51.078;12.108;2022-12-29T02:57:28;2.63;;;0.43;;
37241;SDS011;23135;51.078;12.108;2022-12-29T03:05:17;0.80;;;0.00;;
37241;SDS011;23135;51.078;12.108;2022-12-29T03:08:02;0.10;;;0.10;;
37241;SDS011;23135;51.078;12.108;2022-12-29T03:11:02;0.20;;;0.00;;
37241;SDS011;23135;51.078;12.108;2022-12-29T03:13:52;2.00;;;0.00;;
37241;SDS011;23135;51.078;12.108;2022-12-29T03:16:50;0.70;;;0.10;;
37241;SDS011;23135;51.078;12.108;2022-12-29T03:19:30;1.02;;;0.10;;
37241;SDS011;23135;51.078;12.108;2022-12-29T03:22:17;2.08;;;0.05;;
37241;SDS011;23135;51.078;12.108;2022-12-29T03:25:00;0.20;;;0.00;;
37241;SDS011;23135;51.078;12.108;2022-12-29T03:27:36;4.95;;;1.20;;
37241;SDS011;23135;51.078;12.108;2022-12-29T03:30:07;0.28;;;0.10;;
37241;SDS011;23135;51.078;12.108;2022-12-29T03:32:47;0.20;;;0.00;;
37241;SDS011;23135;51.078;12.108;2022-12-29T03:37:46;0.10;;;0.00;;
37241;SDS011;23135;51.078;12.108;2022-12-29T03:40:18;0.57;;;0.00;;
37241;SDS011;23135;51.078;12.108;2022-12-29T03:42:47;0.10;;;0.00;;
37241;SDS011;23135;51.078;12.108;2022-12-29T03:45:13;0.20;;;0.00;;
37241;SDS011;23135;51.078;12.108;2022-12-29T03:47:39;0.30;;;0.10;;
37241;SDS011;23135;51.078;12.108;2022-12-29T03:50:05;0.98;;;0.03;;
37241;SDS011;23135;51.078;12.108;2022-12-29T03:52:33;0.10;;;0.00;;
37241;SDS011;23135;51.078;12.108;2022-12-29T03:54:59;0.10;;;0.00;;
37241;SDS011;23135;51.078;12.108;2022-12-29T03:57:24;0.10;;;0.00;;
37241;SDS011;23135;51.078;12.108;2022-12-29T03:59:50;0.10;;;0.00;;
37241;SDS011;23135;51.078;12.108;2022-12-29T04:02:15;1.08;;;0.05;;
37241;SDS011;23135;51.078;12.108;2022-12-29T04:04:41;1.63;;;0.73;;
37241;SDS011;23135;51.078;12.108;2022-12-29T04:07:06;3.22;;;0.10;;
37241;SDS011;23135;51.078;12.108;2022-12-29T04:09:32;0.00;;;0.00;;
37241;SDS011;23135;51.078;12.108;2022-12-29T04:11:58;1.35;;;0.00;;
37241;SDS011;23135;51.078;12.108;2022-12-29T04:14:23;0.25;;;0.10;;
37241;SDS011;23135;51.078;12.108;2022-12-29T04:16:49;0.43;;;0.00;;
37241;SDS011;23135;51.078;12.108;2022-12-29T04:19:14;0.65;;;0.00;;
37241;SDS011;23135;51.078;12.108;2022-12-29T04:21:40;2.75;;;0.00;;
37241;SDS011;23135;51.078;12.108;2022-12-29T04:24:05;0.10;;;0.00;;
37241;SDS011;23135;51.078;12.108;2022-12-29T04:26:31;1.13;;;0.00;;
37241;SDS011;23135;51.078;12.108;2022-12-29T04:28:57;0.00;;;0.00;;
37241;SDS011;23135;51.078;12.108;2022-12-29T04:31:23;1.15;;;0.20;;
37241;SDS011;23135;51.078;12.108;2022-12-29T04:33:48;0.88;;;0.10;;
37241;SDS011;23135;51.078;12.108;2022-12-29T04:36:14;0.00;;;0.00;;
37241;SDS011;23135;51.078;12.108;2022-12-29T04:38:39;1.85;;;0.35;;
37241;SDS011;23135;51.078;12.108;2022-12-29T04:41:05;1.55;;;0.00;;
37241;SDS011;23135;51.078;12.108;2022-12-29T04:43:31;0.10;;;0.00;;
37241;SDS011;23135;51.078;12.108;2022-12-29T04:45:56;0.65;;;0.00;;
37241;SDS011;23135;51.078;12.108;2022-12-29T04:48:22;0.88;;;0.00;;
37241;SDS011;23135;51.078;12.108;2022-12-29T04:50:48;0.10;;;0.00;;
37241;SDS011;23135;51.078;12.108;2022-12-29T04:53:14;0.03;;;0.03;;
37241;SDS011;23135;51.078;12.108;2022-12-29T04:55:40;0.68;;;0.20;;
37241;SDS011;23135;51.078;12.108;2022-12-29T04:58:06;2.00;;;0.00;;
37241;SDS011;23135;51.078;12.108;2022-12-29T05:00:32;0.68;;;0.00;;
37241;SDS011;23135;51.078;12.108;2022-12-29T05:02:58;0.28;;;0.00;;
37241;SDS011;23135;51.078;12.108;2022-12-29T05:05:24;0.50;;;0.00;;
37241;SDS011;23135;51.078;12.108;2022-12-29T05:07:50;0.00;;;0.00;;
37241;SDS011;23135;51.078;12.108;2022-12-29T05:10:15;1.83;;;0.63;;
37241;SDS011;23135;51.078;12.108;2022-12-29T05:12:41;0.10;;;0.00;;
37241;SDS011;23135;51.078;12.108;2022-12-29T05:15:07;2.45;;;0.00;;
37241;SDS011;23135;51.078;12.108;2022-12-29T05:17:34;4.43;;;0.45;;
37241;SDS011;23135;51.078;12.108;2022-12-29T05:20:00;0.00;;;0.00;;
37241;SDS011;23135;51.078;12.108;2022-12-29T05:22:26;0.22;;;0.13;;
37241;SDS011;23135;51.078;12.108;2022-12-29T05:24:51;3.40;;;0.00;;
37241;SDS011;23135;51.078;12.108;2022-12-29T05:27:17;0.65;;;0.00;;
37241;SDS011;23135;51.078;12.108;2022-12-29T05:29:42;0.28;;;0.10;;
37241;SDS011;23135;51.078;12.108;2022-12-29T05:32:08;0.93;;;0.00;;
37241;SDS011;23135;51.078;12.108;2022-12-29T05:34:34;2.50;;;0.32;;
37241;SDS011;23135;51.078;12.108;2022-12-29T05:36:59;0.05;;;0.00;;
37241;SDS011;23135;51.078;12.108;2022-12-29T05:39:25;0.50;;;0.22;;
37241;SDS011;23135;51.078;12.108;2022-12-29T05:41:51;0.00;;;0.00;;
37241;SDS011;23135;51.078;12.108;2022-12-29T05:44:16;0.95;;;0.00;;
37241;SDS011;23135;51.078;12.108;2022-12-29T05:46:42;3.22;;;0.00;;
37241;SDS011;23135;51.078;12.108;2022-12-29T05:49:07;0.68;;;0.10;;
37241;SDS011;23135;51.078;12.108;2022-12-29T05:51:33;1.60;;;0.00;;
37241;SDS011;23135;51.078;12.108;2022-12-29T05:53:59;0.77;;;0.00;;
37241;SDS011;23135;51.078;12.108;2022-12-29T05:56:24;0.10;;;0.03;;
37241;SDS011;23135;51.078;12.108;2022-12-29T05:58:50;0.32;;;0.08;;
37241;SDS011;23135;51.078;12.108;2022-12-29T06:01:15;1.95;;;0.10;;
37241;SDS011;23135;51.078;12.108;2022-12-29T06:03:41;0.32;;;0.00;;
37241;SDS011;23135;51.078;12.108;2022-12-29T06:06:06;3.88;;;0.20;;
37241;SDS011;23135;51.078;12.108;2022-12-29T06:08:32;0.47;;;0.00;;
37241;SDS011;23135;51.078;12.108;2022-12-29T06:10:58;1.15;;;0.00;;
37241;SDS011;23135;51.078;12.108;2022-12-29T06:13:23;0.20;;;0.00;;
37241;SDS011;23135;51.078;12.108;2022-12-29T06:15:49;2.75;;;0.17;;
37241;SDS011;23135;51.078;12.108;2022-12-29T06:18:15;0.30;;;0.10;;
37241;SDS011;23135;51.078;12.108;2022-12-29T06:20:42;0.20;;;0.20;;
37241;SDS011;23135;51.078;12.108;2022-12-29T06:23:07;1.02;;;0.00;;
37241;SDS011;23135;51.078;12.108;2022-12-29T06:25:33;0.28;;;0.00;;
37241;SDS011;23135;51.078;12.108;2022-12-29T06:28:00;0.20;;;0.00;;
37241;SDS011;23135;51.078;12.108;2022-12-29T06:30:26;0.82;;;0.00;;
37241;SDS011;23135;51.078;12.108;2022-12-29T06:32:52;0.25;;;0.00;;
37241;SDS011;23135;51.078;12.108;2022-12-29T06:35:17;3.00;;;0.00;;
37241;SDS011;23135;51.078;12.108;2022-12-29T06:37:43;0.30;;;0.05;;
37241;SDS011;23135;51.078;12.108;2022-12-29T06:40:09;0.50;;;0.10;;
37241;SDS011;23135;51.078;12.108;2022-12-29T06:42:35;0.00;;;0.00;;
37241;SDS011;23135;51.078;12.108;2022-12-29T06:45:00;0.57;;;0.00;;
37241;SDS011;23135;51.078;12.108;2022-12-29T06:47:26;1.25;;;0.00;;
37241;SDS011;23135;51.078;12.108;2022-12-29T06:49:52;0.25;;;0.15;;
37241;SDS011;23135;51.078;12.108;2022-12-29T06:52:17;0.43;;;0.00;;
37241;SDS011;23135;51.078;12.108;2022-12-29T06:54:43;0.55;;;0.00;;
37241;SDS011;23135;51.078;12.108;2022-12-29T06:57:09;0.00;;;0.00;;
37241;SDS011;23135;51.078;12.108;2022-12-29T06:59:34;1.95;;;0.03;;
37241;SDS011;23135;51.078;12.108;2022-12-29T07:02:00;4.40;;;0.00;;
37241;SDS011;23135;51.078;12.108;2022-12-29T07:04:26;0.00;;;0.00;;
37241;SDS011;23135;51.078;12.108;2022-12-29T07:06:52;0.65;;;0.10;;
37241;SDS011;23135;51.078;12.108;2022-12-29T07:09:18;1.25;;;0.10;;
37241;SDS011;23135;51.078;12.108;2022-12-29T07:11:44;1.00;;;0.08;;
37241;SDS011;23135;51.078;12.108;2022-12-29T07:14:10;0.00;;;0.00;;
37241;SDS011;23135;51.078;12.108;2022-12-29T07:16:36;0.20;;;0.00;;
37241;SDS011;23135;51.078;12.108;2022-12-29T07:19:02;0.50;;;0.00;;
37241;SDS011;23135;51.078;12.108;2022-12-29T07:21:28;3.30;;;0.47;;
37241;SDS011;23135;51.078;12.108;2022-12-29T07:23:53;4.03;;;0.00;;
37241;SDS011;23135;51.078;12.108;2022-12-29T07:26:19;0.00;;;0.00;;
37241;SDS011;23135;51.078;12.108;2022-12-29T07:28:45;1.58;;;0.25;;
37241;SDS011;23135;51.078;12.108;2022-12-29T07:31:15;0.35;;;0.00;;
37241;SDS011;23135;51.078;12.108;2022-12-29T07:33:46;0.00;;;0.00;;
37241;SDS011;23135;51.078;12.108;2022-12-29T07:36:12;1.73;;;0.15;;
37241;SDS011;23135;51.078;12.108;2022-12-29T07:38:39;2.08;;;0.00;;
37241;SDS011;23135;51.078;12.108;2022-12-29T07:41:05;0.85;;;0.30;;
37241;SDS011;23135;51.078;12.108;2022-12-29T07:43:30;1.05;;;0.20;;
37241;SDS011;23135;51.078;12.108;2022-12-29T07:45:56;2.58;;;0.20;;
37241;SDS011;23135;51.078;12.108;2022-12-29T07:48:21;0.43;;;0.00;;
37241;SDS011;23135;51.078;12.108;2022-12-29T07:50:47;1.60;;;0.00;;
37241;SDS011;23135;51.078;12.108;2022-12-29T07:53:13;0.38;;;0.00;;
37241;SDS011;23135;51.078;12.108;2022-12-29T07:55:39;1.80;;;0.10;;
37241;SDS011;23135;51.078;12.108;2022-12-29T07:58:05;1.85;;;0.57;;
37241;SDS011;23135;51.078;12.108;2022-12-29T08:00:31;1.27;;;0.00;;
37241;SDS011;23135;51.078;12.108;2022-12-29T08:02:56;1.95;;;0.00;;
37241;SDS011;23135;51.078;12.108;2022-12-29T08:05:22;1.63;;;0.00;;
37241;SDS011;23135;51.078;12.108;2022-12-29T08:07:47;1.83;;;0.00;;
37241;SDS011;23135;51.078;12.108;2022-12-29T08:10:13;0.93;;;0.00;;
37241;SDS011;23135;51.078;12.108;2022-12-29T08:12:40;1.77;;;0.05;;
37241;SDS011;23135;51.078;12.108;2022-12-29T08:15:06;0.20;;;0.00;;
37241;SDS011;23135;51.078;12.108;2022-12-29T08:17:33;5.95;;;0.10;;
37241;SDS011;23135;51.078;12.108;2022-12-29T08:19:59;0.00;;;0.00;;
37241;SDS011;23135;51.078;12.108;2022-12-29T08:22:25;0.68;;;0.20;;
37241;SDS011;23135;51.078;12.108;2022-12-29T08:24:51;1.42;;;0.00;;
37241;SDS011;23135;51.078;12.108;2022-12-29T08:27:16;1.80;;;0.00;;
37241;SDS011;23135;51.078;12.108;2022-12-29T08:29:42;1.08;;;0.00;;
37241;SDS011;23135;51.078;12.108;2022-12-29T08:32:08;0.00;;;0.00;;
37241;SDS011;23135;51.078;12.108;2022-12-29T08:34:34;0.20;;;0.00;;
37241;SDS011;23135;51.078;12.108;2022-12-29T08:36:59;2.08;;;0.63;;
37241;SDS011;23135;51.078;12.108;2022-12-29T08:39:25;3.70;;;0.00;;
37241;SDS011;23135;51.078;12.108;2022-12-29T08:41:50;1.48;;;0.10;;
37241;SDS011;23135;51.078;12.108;2022-12-29T08:44:16;1.70;;;0.00;;
37241;SDS011;23135;51.078;12.108;2022-12-29T08:46:41;0.47;;;0.00;;
37241;SDS011;23135;51.078;12.108;2022-12-29T08:49:07;0.10;;;0.00;;
37241;SDS011;23135;51.078;12.108;2022-12-29T08:51:33;1.17;;;0.00;;
37241;SDS011;23135;51.078;12.108;2022-12-29T08:53:59;0.10;;;0.10;;
37241;SDS011;23135;51.078;12.108;2022-12-29T08:56:25;0.10;;;0.10;;
37241;SDS011;23135;51.078;12.108;2022-12-29T08:58:51;1.58;;;0.00;;
37241;SDS011;23135;51.078;12.108;2022-12-29T09:01:17;1.58;;;0.00;;
37241;SDS011;23135;51.078;12.108;2022-12-29T09:03:43;3.45;;;1.30;;
37241;SDS011;23135;51.078;12.108;2022-12-29T09:06:08;3.03;;;0.98;;
37241;SDS011;23135;51.078;12.108;2022-12-29T09:08:34;0.00;;;0.00;;
37241;SDS011;23135;51.078;12.108;2022-12-29T09:11:10;0.82;;;0.00;;
37241;SDS011;23135;51.078;12.108;2022-12-29T09:13:45;4.03;;;0.10;;
37241;SDS011;23135;51.078;12.108;2022-12-29T09:16:11;1.92;;;0.10;;
37241;SDS011;23135;51.078;12.108;2022-12-29T09:18:37;1.88;;;0.38;;
37241;SDS011;23135;51.078;12.108;2022-12-29T09:21:04;0.47;;;0.00;;
37241;SDS011;23135;51.078;12.108;2022-12-29T09:23:31;0.10;;;0.00;;
37241;SDS011;23135;51.078;12.108;2022-12-29T09:25:57;0.63;;;0.30;;
37241;SDS011;23135;51.078;12.108;2022-12-29T09:28:23;0.95;;;0.10;;
37241;SDS011;23135;51.078;12.108;2022-12-29T09:30:49;2.08;;;0.82;;
37241;SDS011;23135;51.078;12.108;2022-12-29T09:33:15;3.30;;;0.03;;
37241;SDS011;23135;51.078;12.108;2022-12-29T09:35:44;0.10;;;0.00;;
37241;SDS011;23135;51.078;12.108;2022-12-29T09:38:14;1.50;;;0.00;;
37241;SDS011;23135;51.078;12.108;2022-12-29T09:40:40;0.05;;;0.00;;
37241;SDS011;23135;51.078;12.108;2022-12-29T09:46:24;2.53;;;0.00;;
37241;SDS011;23135;51.078;12.108;2022-12-29T09:49:01;0.68;;;0.00;;
37241;SDS011;23135;51.078;12.108;2022-12-29T09:51:32;2.95;;;0.00;;
37241;SDS011;23135;51.078;12.108;2022-12-29T09:54:04;0.32;;;0.00;;
37241;SDS011;23135;51.078;12.108;2022-12-29T09:56:58;1.48;;;0.28;;
37241;SDS011;23135;51.078;12.108;2022-12-29T09:59:24;4.03;;;0.00;;
37241;SDS011;23135;51.078;12.108;2022-12-29T10:02:21;0.43;;;0.10;;
37241;SDS011;23135;51.078;12.108;2022-12-29T10:05:01;2.78;;;0.10;;
37241;SDS011;23135;51.078;12.108;2022-12-29T10:13:09;0.77;;;0.10;;
37241;SDS011;23135;51.078;12.108;2022-12-29T10:18:48;2.55;;;0.10;;
37241;SDS011;23135;51.078;12.108;2022-12-29T10:24:27;4.63;;;0.15;;
37241;SDS011;23135;51.078;12.108;2022-12-29T10:26:56;1.55;;;0.08;;
37241;SDS011;23135;51.078;12.108;2022-12-29T10:29:26;0.32;;;0.00;;
37241;SDS011;23135;51.078;12.108;2022-12-29T10:31:59;1.90;;;0.30;;
37241;SDS011;23135;51.078;12.108;2022-12-29T10:34:27;2.85;;;0.10;;
37241;SDS011;23135;51.078;12.108;2022-12-29T10:37:00;1.98;;;0.35;;
37241;SDS011;23135;51.078;12.108;2022-12-29T10:39:38;0.98;;;0.00;;
37241;SDS011;23135;51.078;12.108;2022-12-29T10:44:55;1.55;;;0.28;;
37241;SDS011;23135;51.078;12.108;2022-12-29T10:47:25;2.22;;;0.00;;
37241;SDS011;23135;51.078;12.108;2022-12-29T10:49:54;0.32;;;0.10;;
37241;SDS011;23135;51.078;12.108;2022-12-29T10:52:23;0.00;;;0.00;;
37241;SDS011;23135;51.078;12.108;2022-12-29T10:57:28;2.65;;;0.10;;
37241;SDS011;23135;51.078;12.108;2022-12-29T10:59:58;0.70;;;0.05;;
37241;SDS011;23135;51.078;12.108;2022-12-29T11:02:38;0.17;;;0.00;;
37241;SDS011;23135;51.078;12.108;2022-12-29T11:08:14;0.77;;;0.00;;
37241;SDS011;23135;51.078;12.108;2022-12-29T11:10:44;0.40;;;0.00;;
37241;SDS011;23135;51.078;12.108;2022-12-29T11:13:13;0.98;;;0.17;;
37241;SDS011;23135;51.078;12.108;2022-12-29T11:15:40;0.40;;;0.10;;
37241;SDS011;23135;51.078;12.108;2022-12-29T11:20:57;1.63;;;0.00;;
37241;SDS011;23135;51.078;12.108;2022-12-29T11:23:33;0.90;;;0.20;;
37241;SDS011;23135;51.078;12.108;2022-12-29T11:28:38;0.75;;;0.10;;
37241;SDS011;23135;51.078;12.108;2022-12-29T11:31:06;1.42;;;0.08;;
37241;SDS011;23135;51.078;12.108;2022-12-29T11:33:34;2.00;;;0.00;;
37241;SDS011;23135;51.078;12.108;2022-12-29T11:36:11;6.22;;;0.32;;
37241;SDS011;23135;51.078;12.108;2022-12-29T11:38:42;0.68;;;0.32;;
37241;SDS011;23135;51.078;12.108;2022-12-29T11:41:13;2.47;;;0.08;;
37241;SDS011;23135;51.078;12.108;2022-12-29T11:43:44;2.22;;;0.40;;
37241;SDS011;23135;51.078;12.108;2022-12-29T11:49:12;0.40;;;0.08;;
37241;SDS011;23135;51.078;12.108;2022-12-29T11:51:44;1.10;;;0.10;;
37241;SDS011;23135;51.078;12.108;2022-12-29T11:54:22;2.20;;;0.25;;
37241;SDS011;23135;51.078;12.108;2022-12-29T11:56:48;2.83;;;0.40;;
37241;SDS011;23135;51.078;12.108;2022-12-29T12:01:55;2.58;;;0.85;;
37241;SDS011;23135;51.078;12.108;2022-12-29T12:04:24;2.75;;;0.50;;
37241;SDS011;23135;51.078;12.108;2022-12-29T12:07:02;3.53;;;0.25;;
37241;SDS011;23135;51.078;12.108;2022-12-29T12:12:20;2.63;;;0.40;;
37241;SDS011;23135;51.078;12.108;2022-12-29T12:15:09;2.15;;;0.08;;
37241;SDS011;23135;51.078;12.108;2022-12-29T12:26:20;0.95;;;0.20;;
37241;SDS011;23135;51.078;12.108;2022-12-29T12:28:54;0.28;;;0.00;;
37241;SDS011;23135;51.078;12.108;2022-12-29T12:34:01;0.20;;;0.00;;
37241;SDS011;23135;51.078;12.108;2022-12-29T12:36:49;4.07;;;0.15;;
37241;SDS011;23135;51.078;12.108;2022-12-29T12:39:34;0.22;;;0.00;;
37241;SDS011;23135;51.078;12.108;2022-12-29T12:42:10;0.80;;;0.00;;
37241;SDS011;23135;51.078;12.108;2022-12-29T12:45:07;1.85;;;0.55;;
37241;SDS011;23135;51.078;12.108;2022-12-29T12:47:47;0.77;;;0.10;;
37241;SDS011;23135;51.078;12.108;2022-12-29T12:50:40;0.30;;;0.10;;
37241;SDS011;23135;51.078;12.108;2022-12-29T12:56:15;2.03;;;0.10;;
37241;SDS011;23135;51.078;12.108;2022-12-29T12:58:57;3.28;;;0.55;;
37241;SDS011;23135;51.078;12.108;2022-12-29T13:01:37;4.43;;;0.22;;
37241;SDS011;23135;51.078;12.108;2022-12-29T13:12:31;1.05;;;0.00;;
37241;SDS011;23135;51.078;12.108;2022-12-29T13:15:46;0.90;;;0.00;;
37241;SDS011;23135;51.078;12.108;2022-12-29T13:18:32;0.63;;;0.00;;
37241;SDS011;23135;51.078;12.108;2022-12-29T13:24:11;0.15;;;0.15;;
37241;SDS011;23135;51.078;12.108;2022-12-29T13:26:48;0.17;;;0.00;;
37241;SDS011;23135;51.078;12.108;2022-12-29T13:29:36;0.20;;;0.00;;
37241;SDS011;23135;51.078;12.108;2022-12-29T13:35:01;0.65;;;0.30;;
37241;SDS011;23135;51.078;12.108;2022-12-29T13:37:50;0.00;;;0.00;;
37241;SDS011;23135;51.078;12.108;2022-12-29T13:43:09;5.95;;;0.30;;
37241;SDS011;23135;51.078;12.108;2022-12-29T13:45:37;2.17;;;0.00;;
37241;SDS011;23135;51.078;12.108;2022-12-29T13:48:24;0.40;;;0.10;;
37241;SDS011;23135;51.078;12.108;2022-12-29T13:51:00;0.10;;;0.00;;
37241;SDS011;23135;51.078;12.108;2022-12-29T13:53:30;0.63;;;0.10;;
37241;SDS011;23135;51.078;12.108;2022-12-29T13:56:22;1.27;;;0.00;;
37241;SDS011;23135;51.078;12.108;2022-12-29T14:05:01;3.05;;;0.00;;
37241;SDS011;23135;51.078;12.108;2022-12-29T14:07:29;3.28;;;0.38;;
37241;SDS011;23135;51.078;12.108;2022-12-29T14:10:02;0.65;;;0.00;;
37241;SDS011;23135;51.078;12.108;2022-12-29T14:17:37;2.28;;;0.10;;
37241;SDS011;23135;51.078;12.108;2022-12-29T14:20:05;0.55;;;0.00;;
37241;SDS011;23135;51.078;12.108;2022-12-29T14:22:54;1.98;;;0.35;;
37241;SDS011;23135;51.078;12.108;2022-12-29T14:28:34;3.33;;;0.88;;
37241;SDS011;23135;51.078;12.108;2022-12-29T14:31:03;3.88;;;1.48;;
37241;SDS011;23135;51.078;12.108;2022-12-29T14:47:52;3.05;;;0.70;;
37241;SDS011;23135;51.078;12.108;2022-12-29T14:50:52;4.43;;;1.40;;
37241;SDS011;23135;51.078;12.108;2022-12-29T14:56:04;4.03;;;1.55;;
37241;SDS011;23135;51.078;12.108;2022-12-29T14:58:44;2.75;;;0.47;;
37241;SDS011;23135;51.078;12.108;2022-12-29T15:04:23;2.45;;;0.70;;
37241;SDS011;23135;51.078;12.108;2022-12-29T15:06:54;4.00;;;0.65;;
37241;SDS011;23135;51.078;12.108;2022-12-29T15:15:21;3.55;;;1.25;;
37241;SDS011;23135;51.078;12.108;2022-12-29T15:17:51;3.55;;;1.17;;
37241;SDS011;23135;51.078;12.108;2022-12-29T15:20:21;1.10;;;0.40;;
37241;SDS011;23135;51.078;12.108;2022-12-29T15:22:58;0.80;;;0.08;;
37241;SDS011;23135;51.078;12.108;2022-12-29T15:25:27;2.30;;;0.25;;
37241;SDS011;23135;51.078;12.108;2022-12-29T15:27:54;0.68;;;0.00;;
37241;SDS011;23135;51.078;12.108;2022-12-29T15:30:25;0.20;;;0.00;;
37241;SDS011;23135;51.078;12.108;2022-12-29T15:32:51;1.83;;;0.00;;
37241;SDS011;23135;51.078;12.108;2022-12-29T15:35:34;0.28;;;0.17;;
37241;SDS011;23135;51.078;12.108;2022-12-29T15:38:12;0.47;;;0.10;;
37241;SDS011;23135;51.078;12.108;2022-12-29T15:40:41;0.00;;;0.00;;
37241;SDS011;23135;51.078;12.108;2022-12-29T15:45:38;1.52;;;0.30;;
37241;SDS011;23135;51.078;12.108;2022-12-29T15:48:03;0.52;;;0.00;;
37241;SDS011;23135;51.078;12.108;2022-12-29T15:50:32;2.10;;;0.00;;
37241;SDS011;23135;51.078;12.108;2022-12-29T15:53:00;1.75;;;0.05;;
37241;SDS011;23135;51.078;12.108;2022-12-29T15:58:02;0.60;;;0.00;;
37241;SDS011;23135;51.078;12.108;2022-12-29T16:00:33;1.25;;;0.08;;
37241;SDS011;23135;51.078;12.108;2022-12-29T16:03:02;1.88;;;0.00;;
37241;SDS011;23135;51.078;12.108;2022-12-29T16:05:37;1.10;;;0.20;;
37241;SDS011;23135;51.078;12.108;2022-12-29T16:11:02;1.45;;;0.00;;
37241;SDS011;23135;51.078;12.108;2022-12-29T16:13:45;0.10;;;0.00;;
37241;SDS011;23135;51.078;12.108;2022-12-29T16:16:13;1.35;;;0.15;;
37241;SDS011;23135;51.078;12.108;2022-12-29T16:18:46;0.93;;;0.28;;
37241;SDS011;23135;51.078;12.108;2022-12-29T16:21:19;1.48;;;0.00;;
37241;SDS011;23135;51.078;12.108;2022-12-29T16:23:49;2.35;;;0.00;;
37241;SDS011;23135;51.078;12.108;2022-12-29T16:26:17;1.95;;;0.08;;
37241;SDS011;23135;51.078;12.108;2022-12-29T16:28:46;0.30;;;0.00;;
37241;SDS011;23135;51.078;12.108;2022-12-29T16:33:46;5.63;;;1.75;;
37241;SDS011;23135;51.078;12.108;2022-12-29T16:36:22;1.92;;;0.20;;
37241;SDS011;23135;51.078;12.108;2022-12-29T16:44:24;0.45;;;0.00;;
37241;SDS011;23135;51.078;12.108;2022-12-29T16:46:56;3.95;;;1.02;;
37241;SDS011;23135;51.078;12.108;2022-12-29T16:49:30;8.15;;;2.22;;
37241;SDS011;23135;51.078;12.108;2022-12-29T16:51:57;2.75;;;1.40;;
37241;SDS011;23135;51.078;12.108;2022-12-29T16:54:41;6.43;;;2.28;;
37241;SDS011;23135;51.078;12.108;2022-12-29T16:57:13;7.63;;;2.67;;
37241;SDS011;23135;51.078;12.108;2022-12-29T16:59:39;6.15;;;1.40;;
37241;SDS011;23135;51.078;12.108;2022-12-29T17:02:10;4.88;;;1.13;;
37241;SDS011;23135;51.078;12.108;2022-12-29T17:04:43;6.43;;;2.42;;
37241;SDS011;23135;51.078;12.108;2022-12-29T17:07:17;4.70;;;1.90;;
37241;SDS011;23135;51.078;12.108;2022-12-29T17:09:44;6.03;;;2.53;;
37241;SDS011;23135;51.078;12.108;2022-12-29T17:12:10;4.18;;;1.02;;
37241;SDS011;23135;51.078;12.108;2022-12-29T17:19:41;4.95;;;1.13;;
37241;SDS011;23135;51.078;12.108;2022-12-29T17:22:17;1.02;;;0.68;;
37241;SDS011;23135;51.078;12.108;2022-12-29T17:24:49;0.15;;;0.05;;
37241;SDS011;23135;51.078;12.108;2022-12-29T17:27:59;2.65;;;0.60;;
37241;SDS011;23135;51.078;12.108;2022-12-29T17:30:20;6.55;;;0.55;;
37241;SDS011;23135;51.078;12.108;2022-12-29T17:32:54;5.97;;;0.70;;